Time;durP1;ratioP1;P1;durP2;ratioP2;P2;SDS_P1;SDS_P2;PMS_P1;PMS_P2;Temp;Humidity;BMP_temperature;BMP_pressure;BME280_temperature;BME280_humidity;BME280_pressure;Samples;Min_cycle;Max_cycle;Signal;HPM_P1;HPM_P2
2023/03/01 00:01:33;;;;;;;5.10;2.90;;;-2.10;97.30;;;;;;5009009;28;20166;-86
2023/03/01 00:03:59;;;;;;;4.67;3.73;;;-2.10;97.30;;;;;;5017103;28;20196;-85
2023/03/01 00:06:25;;;;;;;2.80;2.30;;;-2.20;97.30;;;;;;5009776;28;20190;-86
2023/03/01 00:08:51;;;;;;;2.70;2.50;;;-2.20;97.30;;;;;;5019466;28;20654;-87
2023/03/01 00:11:20;;;;;;;2.97;2.77;;;-2.20;97.30;;;;;;5029288;28;20411;-85
2023/03/01 00:13:48;;;;;;;2.07;1.93;;;-2.20;97.30;;;;;;5019336;28;20525;-86
2023/03/01 00:16:21;;;;;;;2.30;2.07;;;-2.20;97.30;;;;;;5029003;28;20458;-85
2023/03/01 00:18:46;;;;;;;3.57;2.40;;;-2.20;97.30;;;;;;5021376;28;20236;-86
2023/03/01 00:21:12;;;;;;;3.30;3.10;;;-2.10;97.30;;;;;;5018927;28;21176;-83
2023/03/01 00:23:38;;;;;;;5.20;4.90;;;-2.10;97.30;;;;;;5009931;28;20203;-85
2023/03/01 00:26:12;;;;;;;1.67;1.57;;;-2.10;97.30;;;;;;5023765;28;20662;-83
2023/03/01 00:28:38;;;;;;;2.37;2.17;;;-2.10;97.30;;;;;;5023580;28;20413;-85
2023/03/01 00:31:09;;;;;;;5.00;2.70;;;-2.10;97.30;;;;;;5006694;28;20477;-85
2023/03/01 00:33:35;;;;;;;2.85;2.20;;;-2.10;97.30;;;;;;5032398;28;20262;-84
2023/03/01 00:36:01;;;;;;;4.17;2.30;;;-2.10;97.30;;;;;;5023165;28;20439;-85
2023/03/01 00:38:26;;;;;;;1.70;1.60;;;-2.10;97.30;;;;;;5009143;28;20412;-85
2023/03/01 00:40:52;;;;;;;3.63;3.00;;;-2.10;97.30;;;;;;5021000;28;20422;-86
2023/03/01 00:43:18;;;;;;;3.00;2.80;;;-2.10;97.30;;;;;;5016808;28;20195;-87
2023/03/01 00:45:43;;;;;;;2.40;2.13;;;-2.10;97.30;;;;;;5030544;28;20176;-87
2023/03/01 00:48:09;;;;;;;3.03;2.33;;;-2.20;97.30;;;;;;5022852;28;20277;-85
2023/03/01 00:50:34;;;;;;;2.93;2.60;;;-2.20;97.30;;;;;;5039534;28;20275;-85
2023/03/01 00:53:00;;;;;;;7.30;2.40;;;-2.20;97.30;;;;;;5019026;28;20199;-85
2023/03/01 00:55:26;;;;;;;10.83;3.27;;;-2.20;97.30;;;;;;5022062;28;20689;-87
2023/03/01 00:57:51;;;;;;;2.20;2.07;;;-2.30;97.30;;;;;;5020875;28;20254;-86
2023/03/01 01:00:18;;;;;;;5.70;2.60;;;-2.30;97.30;;;;;;5025956;28;20431;-83
2023/03/01 01:02:44;;;;;;;3.70;2.70;;;-2.30;97.30;;;;;;5013430;28;20854;-85
2023/03/01 01:05:10;;;;;;;2.90;2.70;;;-2.30;97.30;;;;;;5018804;28;20511;-85
2023/03/01 01:07:36;;;;;;;3.20;3.00;;;-2.40;97.30;;;;;;5013852;28;20403;-86
2023/03/01 01:10:02;;;;;;;3.33;1.93;;;-2.40;97.30;;;;;;5019355;28;20212;-86
2023/03/01 01:12:28;;;;;;;2.80;2.57;;;-2.40;97.30;;;;;;5015704;28;20201;-85
2023/03/01 01:14:53;;;;;;;1.97;1.90;;;-2.40;97.30;;;;;;5028233;28;20413;-87
2023/03/01 01:17:19;;;;;;;4.10;2.50;;;-2.40;97.30;;;;;;5021673;28;20222;-85
2023/03/01 01:19:44;;;;;;;2.77;2.57;;;-2.40;97.30;;;;;;5014002;28;20727;-85
2023/03/01 01:22:10;;;;;;;4.53;2.30;;;-2.50;97.30;;;;;;5014023;28;20225;-87
2023/03/01 01:24:35;;;;;;;2.20;1.63;;;-2.50;97.30;;;;;;5010074;28;20261;-87
2023/03/01 01:27:01;;;;;;;7.00;3.63;;;-2.50;97.30;;;;;;5020012;28;20184;-85
2023/03/01 01:29:27;;;;;;;2.53;2.33;;;-2.50;97.30;;;;;;5038419;28;20680;-86
2023/03/01 01:31:52;;;;;;;7.93;4.37;;;-2.50;97.30;;;;;;5008918;28;20180;-86
2023/03/01 01:34:21;;;;;;;1.63;1.53;;;-2.50;97.30;;;;;;5013235;28;20592;-86
2023/03/01 01:36:53;;;;;;;6.17;1.93;;;-2.60;97.30;;;;;;5012041;28;20208;-86
2023/03/01 01:39:18;;;;;;;3.10;2.85;;;-2.60;97.30;;;;;;5012472;28;20457;-86
2023/03/01 01:41:44;;;;;;;4.40;2.33;;;-2.60;97.30;;;;;;5004808;28;20401;-86
2023/03/01 01:44:16;;;;;;;2.23;2.03;;;-2.70;97.30;;;;;;5008772;28;20204;-86
2023/03/01 01:46:55;;;;;;;3.80;2.60;;;-2.70;97.30;;;;;;5008170;28;20187;-87
2023/03/01 01:49:37;;;;;;;3.07;2.87;;;-2.70;97.30;;;;;;5018211;28;20213;-86
2023/03/01 01:52:11;;;;;;;4.80;3.70;;;-2.70;97.30;;;;;;5013851;28;20244;-86
2023/03/01 01:55:08;;;;;;;2.93;2.73;;;-2.70;97.30;;;;;;5020115;28;20403;-85
2023/03/01 01:57:41;;;;;;;1.60;1.50;;;-2.70;97.30;;;;;;5019254;28;20450;-87
2023/03/01 02:00:14;;;;;;;5.50;3.83;;;-2.80;97.30;;;;;;5008501;28;20449;-85
2023/03/01 02:02:42;;;;;;;2.90;2.73;;;-2.80;97.30;;;;;;5017209;28;21029;-86
2023/03/01 02:05:29;;;;;;;8.70;2.13;;;-2.80;97.30;;;;;;5009515;28;20416;-88
2023/03/01 02:07:55;;;;;;;2.00;1.90;;;-2.80;97.30;;;;;;5009086;28;20426;-87
2023/03/01 02:10:23;;;;;;;2.70;2.53;;;-2.80;97.30;;;;;;5019861;28;20411;-86
2023/03/01 02:12:49;;;;;;;2.43;2.13;;;-2.80;97.30;;;;;;5012863;28;20435;-87
2023/03/01 02:15:14;;;;;;;2.50;2.30;;;-2.80;97.30;;;;;;5018454;28;20515;-89
2023/03/01 02:17:40;;;;;;;1.97;1.87;;;-2.80;97.30;;;;;;5019755;28;20494;-86
2023/03/01 02:20:40;;;;;;;1.97;1.87;;;-2.80;97.30;;;;;;5010884;28;20236;-85
2023/03/01 02:23:07;;;;;;;6.70;2.87;;;-2.80;97.30;;;;;;5018610;28;20471;-87
2023/03/01 02:25:53;;;;;;;2.80;2.60;;;-2.80;97.30;;;;;;5018702;28;20415;-85
2023/03/01 02:28:25;;;;;;;6.17;1.90;;;-2.80;97.30;;;;;;5015095;28;20419;-84
2023/03/01 02:33:38;;;;;;;2.30;2.13;;;-2.90;97.30;;;;;;5025051;28;20506;-86
2023/03/01 02:36:09;;;;;;;1.30;1.20;;;-2.90;97.30;;;;;;5016144;28;20416;-87
2023/03/01 02:38:34;;;;;;;3.70;3.53;;;-2.90;97.30;;;;;;5012808;28;21100;-86
2023/03/01 02:41:01;;;;;;;1.33;1.23;;;-3.00;97.30;;;;;;5006665;28;20434;-86
2023/03/01 02:43:32;;;;;;;2.70;2.50;;;-3.00;97.30;;;;;;5013230;28;20197;-86
2023/03/01 02:46:02;;;;;;;7.97;3.43;;;-3.00;97.30;;;;;;5009142;28;20996;-89
2023/03/01 02:48:27;;;;;;;1.60;1.50;;;-3.10;97.30;;;;;;5013669;28;20846;-86
2023/03/01 02:51:04;;;;;;;2.60;2.40;;;-3.10;97.30;;;;;;5009982;28;20426;-87
2023/03/01 02:54:08;;;;;;;2.57;2.37;;;-3.10;97.30;;;;;;5015635;28;20196;-82
2023/03/01 02:56:36;;;;;;;3.03;2.83;;;-3.10;97.30;;;;;;5009592;28;20452;-85
2023/03/01 02:59:05;;;;;;;3.00;2.73;;;-3.10;97.30;;;;;;5016475;28;20419;-86
2023/03/01 03:01:39;;;;;;;3.13;2.73;;;-3.10;97.30;;;;;;5017486;28;20427;-86
2023/03/01 03:04:16;;;;;;;2.80;2.60;;;-3.20;97.30;;;;;;5019080;28;20438;-87
2023/03/01 03:06:45;;;;;;;2.63;2.43;;;-3.20;97.30;;;;;;5010566;28;20491;-86
2023/03/01 03:09:19;;;;;;;3.40;2.60;;;-3.20;97.30;;;;;;5007099;28;20915;-88
2023/03/01 03:11:48;;;;;;;2.13;1.97;;;-3.20;97.30;;;;;;5007685;28;20428;-87
2023/03/01 03:14:16;;;;;;;1.80;1.70;;;-3.10;97.30;;;;;;5015296;28;20420;-87
2023/03/01 03:16:44;;;;;;;4.60;2.10;;;-3.10;97.30;;;;;;5001590;28;20511;-86
2023/03/01 03:19:10;;;;;;;3.20;3.00;;;-3.20;97.30;;;;;;5013521;28;20500;-87
2023/03/01 03:21:35;;;;;;;3.10;2.90;;;-3.20;97.30;;;;;;5012630;28;20964;-86
2023/03/01 03:24:05;;;;;;;4.10;3.53;;;-3.20;97.30;;;;;;5019627;28;20220;-86
2023/03/01 03:26:30;;;;;;;2.70;2.50;;;-3.20;97.30;;;;;;5015969;28;20192;-86
2023/03/01 03:28:56;;;;;;;2.00;1.90;;;-3.20;97.30;;;;;;5013430;28;20628;-86
2023/03/01 03:31:22;;;;;;;3.07;2.20;;;-3.20;97.30;;;;;;5013959;28;20184;-86
2023/03/01 03:33:47;;;;;;;2.90;2.70;;;-3.20;97.30;;;;;;5010459;28;20564;-86
2023/03/01 03:36:22;;;;;;;2.10;1.87;;;-3.20;97.30;;;;;;5017613;28;20180;-87
2023/03/01 03:38:48;;;;;;;1.80;1.70;;;-3.20;97.30;;;;;;5011721;28;20180;-86
2023/03/01 03:41:14;;;;;;;18.13;3.63;;;-3.20;97.30;;;;;;5016249;28;20493;-86
2023/03/01 03:43:42;;;;;;;1.90;1.87;;;-3.20;97.30;;;;;;5009821;28;20460;-86
2023/03/01 03:46:09;;;;;;;6.00;2.87;;;-3.30;97.30;;;;;;5029228;28;20442;-86
2023/03/01 03:48:45;;;;;;;3.00;2.80;;;-3.30;97.30;;;;;;5021392;28;20423;-86
2023/03/01 03:51:16;;;;;;;2.13;1.97;;;-3.40;97.30;;;;;;5015090;28;20925;-85
2023/03/01 03:53:42;;;;;;;2.80;2.50;;;-3.40;97.30;;;;;;5014479;28;20457;-87
2023/03/01 03:56:08;;;;;;;2.57;2.40;;;-3.40;97.30;;;;;;5014764;28;20415;-86
2023/03/01 03:58:33;;;;;;;3.00;1.93;;;-3.40;97.30;;;;;;5019597;28;20549;-86
2023/03/01 04:01:03;;;;;;;5.70;3.30;;;-3.40;97.30;;;;;;5011747;28;20183;-87
2023/03/01 04:03:30;;;;;;;3.13;2.70;;;-3.40;97.30;;;;;;5015706;28;20204;-86
2023/03/01 04:05:58;;;;;;;3.20;3.00;;;-3.50;97.30;;;;;;5017477;28;20419;-85
2023/03/01 04:08:24;;;;;;;5.80;1.97;;;-3.50;97.30;;;;;;5016087;28;20917;-86
2023/03/01 04:10:52;;;;;;;2.43;2.23;;;-3.50;97.30;;;;;;5037761;28;20487;-86
2023/03/01 04:13:20;;;;;;;6.87;2.93;;;-3.50;97.30;;;;;;5020512;28;20450;-81
2023/03/01 04:15:48;;;;;;;2.13;1.97;;;-3.50;97.30;;;;;;5021725;28;20423;-85
2023/03/01 04:18:15;;;;;;;2.40;2.20;;;-3.50;97.30;;;;;;5006180;28;21100;-85
2023/03/01 04:20:42;;;;;;;2.23;2.03;;;-3.50;97.30;;;;;;5009548;28;20518;-87
2023/03/01 04:23:12;;;;;;;1.37;1.27;;;-3.60;97.30;;;;;;5015527;28;20443;-85
2023/03/01 04:25:40;;;;;;;4.40;2.70;;;-3.50;97.30;;;;;;5014987;28;20407;-85
2023/03/01 04:28:06;;;;;;;8.03;3.17;;;-3.50;97.30;;;;;;5016162;28;20457;-88
2023/03/01 04:30:35;;;;;;;5.43;2.80;;;-3.50;97.30;;;;;;5018560;28;20419;-86
2023/03/01 04:33:10;;;;;;;2.80;2.60;;;-3.50;97.30;;;;;;5027724;28;20467;-83
2023/03/01 04:35:36;;;;;;;1.83;1.73;;;-3.50;97.30;;;;;;5019723;28;20425;-83
2023/03/01 04:38:03;;;;;;;4.67;4.37;;;-3.50;97.30;;;;;;5019199;28;20478;-86
2023/03/01 04:40:29;;;;;;;3.47;3.27;;;-3.50;97.30;;;;;;5026557;28;20420;-82
2023/03/01 04:42:54;;;;;;;3.43;3.23;;;-3.50;97.30;;;;;;5057746;28;20520;-87
2023/03/01 04:45:23;;;;;;;4.43;4.13;;;-3.50;97.30;;;;;;5018410;28;20713;-84
2023/03/01 04:47:48;;;;;;;3.10;2.90;;;-3.50;97.30;;;;;;5042273;28;20177;-86
2023/03/01 04:50:16;;;;;;;3.23;2.40;;;-3.50;97.30;;;;;;5020027;28;20463;-89
2023/03/01 04:52:43;;;;;;;3.57;3.37;;;-3.50;97.30;;;;;;5027183;28;20219;-87
2023/03/01 04:55:09;;;;;;;8.03;4.67;;;-3.40;97.30;;;;;;5022640;28;20424;-90
2023/03/01 04:57:35;;;;;;;2.27;2.07;;;-3.40;97.30;;;;;;5031278;28;20470;-88
2023/03/01 05:00:00;;;;;;;5.17;2.33;;;-3.40;97.30;;;;;;5019445;28;20416;-84
2023/03/01 05:02:26;;;;;;;1.40;1.30;;;-3.40;97.30;;;;;;5018659;28;20215;-87
2023/03/01 05:04:51;;;;;;;2.53;2.33;;;-3.40;97.30;;;;;;5016181;28;20182;-83
2023/03/01 05:07:20;;;;;;;2.70;2.50;;;-3.40;97.30;;;;;;5024803;28;20572;-86
2023/03/01 05:09:46;;;;;;;5.23;4.93;;;-3.30;97.30;;;;;;5021542;28;20192;-86
2023/03/01 05:12:12;;;;;;;2.43;2.23;;;-3.30;97.30;;;;;;5038910;28;20538;-84
2023/03/01 05:14:38;;;;;;;1.90;1.80;;;-3.40;97.30;;;;;;5020973;28;20419;-85
2023/03/01 05:17:07;;;;;;;6.03;3.40;;;-3.30;97.30;;;;;;5031239;28;20463;-86
2023/03/01 05:19:33;;;;;;;4.33;4.03;;;-3.30;97.30;;;;;;5016414;28;20659;-85
2023/03/01 05:22:03;;;;;;;2.83;2.63;;;-3.30;97.30;;;;;;5020238;28;20834;-82
2023/03/01 05:24:30;;;;;;;2.67;2.47;;;-3.30;97.30;;;;;;5022852;28;21057;-85
2023/03/01 05:26:56;;;;;;;2.03;1.90;;;-3.30;97.30;;;;;;5020185;28;20431;-84
2023/03/01 05:29:26;;;;;;;1.70;1.60;;;-3.30;97.30;;;;;;5016734;28;20427;-83
2023/03/01 05:32:00;;;;;;;2.83;2.67;;;-3.30;97.30;;;;;;5018472;28;20196;-83
2023/03/01 05:34:29;;;;;;;7.60;2.90;;;-3.30;97.30;;;;;;5023182;28;20521;-83
2023/03/01 05:36:54;;;;;;;3.10;2.90;;;-3.30;97.30;;;;;;5013799;28;20534;-83
2023/03/01 05:39:26;;;;;;;4.40;4.07;;;-3.30;97.30;;;;;;5019119;28;21101;-83
2023/03/01 05:41:53;;;;;;;1.93;1.83;;;-3.30;97.30;;;;;;5015695;28;20185;-84
2023/03/01 05:44:20;;;;;;;1.83;1.73;;;-3.40;97.30;;;;;;5033254;28;20420;-84
2023/03/01 05:46:45;;;;;;;4.73;4.43;;;-3.30;97.30;;;;;;5021923;28;20445;-82
2023/03/01 05:49:13;;;;;;;4.13;3.90;;;-3.30;97.30;;;;;;5019414;28;20454;-82
2023/03/01 05:51:39;;;;;;;3.63;3.37;;;-3.30;97.30;;;;;;5017051;28;20187;-80
2023/03/01 05:54:05;;;;;;;5.43;2.60;;;-3.40;97.30;;;;;;5021379;28;20447;-81
2023/03/01 05:56:32;;;;;;;4.00;3.00;;;-3.40;97.30;;;;;;5014440;28;20463;-84
2023/03/01 05:58:58;;;;;;;3.50;3.03;;;-3.40;97.30;;;;;;5014747;28;20450;-84
2023/03/01 06:01:23;;;;;;;2.23;2.03;;;-3.40;97.30;;;;;;5016120;28;21062;-81
2023/03/01 06:03:49;;;;;;;2.80;2.60;;;-3.40;97.30;;;;;;5017184;28;20215;-81
2023/03/01 06:06:14;;;;;;;3.67;3.37;;;-3.40;97.30;;;;;;5014289;28;20227;-82
2023/03/01 06:08:40;;;;;;;3.10;2.87;;;-3.40;97.30;;;;;;5016220;28;20204;-83
2023/03/01 06:11:06;;;;;;;3.03;2.73;;;-3.40;97.30;;;;;;5012925;28;20358;-81
2023/03/01 06:13:33;;;;;;;2.77;2.57;;;-3.40;97.30;;;;;;5016348;28;20204;-85
2023/03/01 06:15:59;;;;;;;2.43;2.23;;;-3.40;97.30;;;;;;5014352;28;20415;-85
2023/03/01 06:18:48;;;;;;;8.23;1.97;;;-3.40;97.30;;;;;;5014201;28;20498;-82
2023/03/01 06:21:19;;;;;;;1.87;1.77;;;-3.40;97.30;;;;;;5020425;28;20185;-84
2023/03/01 06:23:52;;;;;;;2.07;1.93;;;-3.40;97.30;;;;;;5017365;28;20450;-83
2023/03/01 06:26:18;;;;;;;2.67;2.47;;;-3.40;97.30;;;;;;5018004;28;20415;-84
2023/03/01 06:28:49;;;;;;;2.27;2.07;;;-3.40;97.30;;;;;;5018441;28;20788;-84
2023/03/01 06:32:18;;;;;;;3.23;3.03;;;-3.30;97.30;;;;;;5029681;28;20615;-82
2023/03/01 06:34:57;;;;;;;2.53;2.33;;;-3.30;97.30;;;;;;4993890;28;20452;-82
2023/03/01 06:37:28;;;;;;;1.83;1.73;;;-3.30;97.30;;;;;;4995639;28;20935;-82
2023/03/01 06:39:57;;;;;;;2.07;1.93;;;-3.20;97.30;;;;;;4990847;28;20409;-83
2023/03/01 06:42:58;;;;;;;4.93;3.20;;;-3.20;97.30;;;;;;4994128;28;20444;-84
2023/03/01 06:45:26;;;;;;;2.23;2.10;;;-3.20;97.30;;;;;;4991674;28;20487;-85
2023/03/01 06:47:51;;;;;;;2.70;2.23;;;-3.10;97.30;;;;;;4997167;28;20445;-82
2023/03/01 06:50:17;;;;;;;1.70;1.60;;;-3.10;97.30;;;;;;4995455;28;20417;-83
2023/03/01 06:52:57;;;;;;;6.43;3.00;;;-3.00;97.30;;;;;;4996952;28;20198;-85
2023/03/01 06:55:37;;;;;;;1.50;1.40;;;-3.00;97.30;;;;;;4996851;28;20444;-83
2023/03/01 06:58:08;;;;;;;2.83;2.63;;;-2.90;97.30;;;;;;4995159;28;20455;-82
2023/03/01 07:00:40;;;;;;;9.50;4.13;;;-2.90;97.30;;;;;;4988288;28;20433;-82
2023/03/01 07:03:08;;;;;;;4.10;2.80;;;-2.80;97.30;;;;;;4994756;28;20460;-83
2023/03/01 07:05:34;;;;;;;3.27;3.07;;;-2.70;97.30;;;;;;4994825;28;20422;-82
2023/03/01 07:07:59;;;;;;;6.03;2.20;;;-2.60;97.30;;;;;;4996184;28;20428;-84
2023/03/01 07:10:28;;;;;;;1.60;1.50;;;-2.50;97.30;;;;;;4985692;28;20649;-82
2023/03/01 07:13:08;;;;;;;1.83;1.73;;;-2.50;97.30;;;;;;4987009;28;20260;-83
2023/03/01 07:15:33;;;;;;;2.80;2.27;;;-2.40;97.30;;;;;;4988474;28;20452;-84
2023/03/01 07:17:59;;;;;;;2.70;2.50;;;-2.30;97.30;;;;;;4989369;28;20471;-82
2023/03/01 07:20:28;;;;;;;3.00;2.80;;;-2.20;97.30;;;;;;4990448;28;20178;-83
2023/03/01 07:23:03;;;;;;;2.03;1.90;;;-2.20;97.30;;;;;;4986440;28;20206;-83
2023/03/01 07:25:28;;;;;;;6.07;4.07;;;-2.10;97.30;;;;;;4986740;28;20420;-81
2023/03/01 07:27:56;;;;;;;3.70;3.00;;;-2.00;97.30;;;;;;4986557;28;20798;-84
2023/03/01 07:30:22;;;;;;;2.90;2.30;;;-1.90;97.30;;;;;;4988954;28;20189;-83
2023/03/01 07:32:48;;;;;;;4.40;4.17;;;-1.90;97.30;;;;;;4993359;28;20477;-82
2023/03/01 07:35:17;;;;;;;2.87;2.70;;;-1.80;97.30;;;;;;4992189;28;20467;-85
2023/03/01 07:37:43;;;;;;;2.30;1.97;;;-1.70;97.30;;;;;;4976765;28;20539;-84
2023/03/01 07:40:10;;;;;;;7.20;3.40;;;-1.60;97.30;;;;;;4986737;28;20424;-83
2023/03/01 07:42:36;;;;;;;6.00;2.70;;;-1.60;97.30;;;;;;5001893;28;20476;-82
2023/03/01 07:45:01;;;;;;;2.90;2.37;;;-1.50;97.30;;;;;;5004704;28;20519;-81
2023/03/01 07:47:27;;;;;;;5.50;2.73;;;-1.40;97.30;;;;;;5007813;28;20213;-81
2023/03/01 07:49:52;;;;;;;3.73;2.40;;;-1.30;97.30;;;;;;5003425;28;20178;-82
2023/03/01 07:52:18;;;;;;;6.30;4.33;;;-1.20;97.30;;;;;;4996938;28;20208;-82
2023/03/01 07:54:46;;;;;;;3.50;3.30;;;-1.20;97.30;;;;;;4993566;28;20696;-81
2023/03/01 07:57:12;;;;;;;3.83;3.70;;;-1.00;97.30;;;;;;5007458;28;20218;-84
2023/03/01 07:59:37;;;;;;;3.07;2.70;;;-0.90;97.30;;;;;;4993054;28;20421;-80
2023/03/01 08:02:03;;;;;;;2.33;2.17;;;-0.90;97.30;;;;;;4994767;28;20190;-85
2023/03/01 08:04:28;;;;;;;3.80;3.20;;;-0.80;97.30;;;;;;4992974;28;20182;-82
2023/03/01 08:06:55;;;;;;;3.20;3.00;;;-0.70;97.30;;;;;;4990237;28;20193;-84
2023/03/01 08:09:21;;;;;;;5.20;3.43;;;-0.60;97.30;;;;;;4996376;28;20185;-78
2023/03/01 08:11:46;;;;;;;4.93;3.03;;;-0.50;97.30;;;;;;4995024;28;20467;-81
2023/03/01 08:14:12;;;;;;;5.50;3.20;;;-0.40;97.30;;;;;;4992225;28;20437;-81
2023/03/01 08:16:37;;;;;;;4.03;3.83;;;-0.30;97.30;;;;;;5008115;28;20210;-82
2023/03/01 08:19:08;;;;;;;2.80;2.37;;;-0.20;97.30;;;;;;4990776;28;20193;-80
2023/03/01 08:21:34;;;;;;;4.00;3.43;;;-0.20;97.30;;;;;;5008079;28;20653;-81
2023/03/01 08:24:01;;;;;;;3.90;3.70;;;-0.10;97.30;;;;;;5001350;28;20433;-83
2023/03/01 08:26:26;;;;;;;3.40;2.83;;;0.00;97.30;;;;;;4996598;28;20545;-80
2023/03/01 08:28:52;;;;;;;7.00;3.20;;;0.00;97.30;;;;;;4991177;28;20457;-81
2023/03/01 08:31:25;;;;;;;3.53;3.33;;;0.10;97.30;;;;;;4992746;28;20272;-82
2023/03/01 08:33:56;;;;;;;3.30;2.33;;;0.20;97.30;;;;;;5015892;28;20295;-83
2023/03/01 08:36:34;;;;;;;3.30;3.10;;;0.30;97.30;;;;;;5018829;28;20428;-82
2023/03/01 08:39:00;;;;;;;5.00;3.77;;;0.40;97.30;;;;;;5007862;28;20424;-84
2023/03/01 08:41:26;;;;;;;24.90;4.93;;;0.40;97.30;;;;;;5014594;28;20425;-83
2023/03/01 08:43:52;;;;;;;2.83;2.63;;;0.50;97.30;;;;;;5013832;28;20440;-82
2023/03/01 08:46:18;;;;;;;5.87;3.20;;;0.60;97.30;;;;;;5012867;28;20474;-82
2023/03/01 08:48:43;;;;;;;3.07;2.90;;;0.70;97.30;;;;;;5012163;28;20453;-82
2023/03/01 08:51:16;;;;;;;1.30;1.20;;;0.80;97.30;;;;;;5009973;28;20188;-79
2023/03/01 08:53:42;;;;;;;5.13;3.40;;;1.00;97.30;;;;;;5010688;28;20208;-84
2023/03/01 08:56:09;;;;;;;4.70;2.63;;;1.10;97.30;;;;;;5016089;28;20427;-81
2023/03/01 08:58:34;;;;;;;4.30;4.03;;;1.20;97.30;;;;;;5007305;28;20178;-80
2023/03/01 09:01:00;;;;;;;5.20;3.10;;;1.20;97.30;;;;;;5012738;28;20423;-81
2023/03/01 09:03:26;;;;;;;3.37;3.17;;;1.30;97.30;;;;;;5008411;28;20202;-81
2023/03/01 09:05:52;;;;;;;6.43;4.07;;;1.30;97.30;;;;;;5015016;28;20675;-83
2023/03/01 09:08:19;;;;;;;3.40;3.20;;;1.40;97.30;;;;;;5016795;28;20495;-81
2023/03/01 09:10:44;;;;;;;3.53;3.07;;;1.40;97.30;;;;;;5016590;28;20460;-81
2023/03/01 09:13:10;;;;;;;5.77;2.70;;;1.50;97.30;;;;;;5018023;28;20440;-79
2023/03/01 09:15:38;;;;;;;3.90;2.93;;;1.60;97.30;;;;;;5012459;28;20181;-80
2023/03/01 09:18:05;;;;;;;9.83;4.70;;;1.70;97.30;;;;;;5014309;28;20231;-80
2023/03/01 09:20:31;;;;;;;2.93;2.50;;;1.70;97.30;;;;;;5017056;28;20417;-81
2023/03/01 09:22:57;;;;;;;2.63;2.50;;;1.80;97.30;;;;;;5016222;28;20439;-79
2023/03/01 09:25:23;;;;;;;6.60;4.00;;;1.90;97.30;;;;;;5015341;28;20416;-81
2023/03/01 09:27:51;;;;;;;2.63;2.47;;;1.90;97.30;;;;;;5017014;28;20208;-80
2023/03/01 09:30:17;;;;;;;11.23;4.23;;;2.00;97.30;;;;;;5016472;28;20423;-81
2023/03/01 09:32:44;;;;;;;2.93;2.73;;;2.10;97.30;;;;;;5014648;28;20468;-79
2023/03/01 09:35:11;;;;;;;4.17;3.43;;;2.10;97.30;;;;;;5013650;28;20189;-80
2023/03/01 09:37:37;;;;;;;4.07;3.87;;;2.20;97.30;;;;;;5015180;28;20488;-82
2023/03/01 09:40:05;;;;;;;5.40;3.17;;;2.30;97.30;;;;;;5012284;28;20416;-79
2023/03/01 09:42:36;;;;;;;1.50;1.40;;;2.40;97.30;;;;;;5007722;28;20444;-80
2023/03/01 09:45:28;;;;;;;10.70;5.30;;;2.60;97.30;;;;;;5009525;28;20842;-79
2023/03/01 09:47:55;;;;;;;5.77;4.23;;;2.70;97.30;;;;;;5022704;28;20500;-79
2023/03/01 09:50:21;;;;;;;5.10;4.27;;;2.90;97.30;;;;;;5012797;28;20426;-81
2023/03/01 09:52:59;;;;;;;7.80;3.80;;;3.00;97.30;;;;;;5013509;28;20443;-81
2023/03/01 09:55:37;;;;;;;5.00;4.70;;;3.10;97.30;;;;;;5013417;28;20431;-81
2023/03/01 09:58:40;;;;;;;2.90;2.60;;;3.10;96.50;;;;;;5011617;28;20863;-79
2023/03/01 10:01:24;;;;;;;9.53;4.60;;;3.10;96.50;;;;;;5006165;28;20851;-79
2023/03/01 10:04:28;;;;;;;6.23;3.63;;;3.20;96.60;;;;;;5005686;28;20676;-80
2023/03/01 10:07:02;;;;;;;5.73;4.40;;;3.30;96.30;;;;;;5023029;28;20477;-81
2023/03/01 10:09:32;;;;;;;22.80;7.43;;;3.40;95.80;;;;;;5012365;28;20442;-82
2023/03/01 10:11:59;;;;;;;22.67;5.23;;;3.40;95.40;;;;;;5012484;28;20424;-83
2023/03/01 10:14:46;;;;;;;4.70;4.40;;;3.50;95.60;;;;;;5006444;28;20424;-81
2023/03/01 10:17:27;;;;;;;3.10;2.90;;;3.70;95.00;;;;;;5006496;28;20514;-80
2023/03/01 10:19:53;;;;;;;10.13;5.23;;;3.80;94.40;;;;;;5005224;28;20424;-80
2023/03/01 10:22:28;;;;;;;21.97;4.37;;;3.90;93.70;;;;;;5012078;28;20539;-81
2023/03/01 10:24:57;;;;;;;10.20;5.73;;;4.00;93.50;;;;;;5012275;28;20212;-79
2023/03/01 10:27:25;;;;;;;6.07;4.67;;;4.10;93.50;;;;;;5011129;28;20462;-80
2023/03/01 10:30:17;;;;;;;5.10;3.77;;;4.30;94.00;;;;;;5007116;28;20433;-81
2023/03/01 10:32:44;;;;;;;34.30;5.10;;;4.40;92.10;;;;;;5007557;28;20523;-80
2023/03/01 10:35:22;;;;;;;6.10;4.50;;;4.40;92.00;;;;;;5011727;28;20428;-80
2023/03/01 10:38:04;;;;;;;9.60;5.23;;;4.40;91.80;;;;;;5009775;28;20825;-82
2023/03/01 10:40:30;;;;;;;3.67;3.40;;;4.50;91.50;;;;;;5014419;28;20512;-80
2023/03/01 10:42:59;;;;;;;6.83;4.10;;;4.50;91.30;;;;;;5009545;28;20469;-82
2023/03/01 10:45:39;;;;;;;8.00;3.67;;;4.60;91.90;;;;;;5027265;28;20412;-80
2023/03/01 10:48:13;;;;;;;6.37;5.40;;;4.80;91.80;;;;;;5011731;28;20946;-81
2023/03/01 10:50:40;;;;;;;4.20;3.73;;;4.90;91.30;;;;;;5007933;28;20942;-80
2023/03/01 10:53:18;;;;;;;7.87;4.73;;;5.00;91.30;;;;;;5008410;28;20436;-79
2023/03/01 10:55:44;;;;;;;8.03;4.17;;;5.10;90.50;;;;;;5018996;28;20463;-80
2023/03/01 10:58:21;;;;;;;6.50;3.53;;;5.10;90.30;;;;;;5004676;28;20483;-80
2023/03/01 11:00:55;;;;;;;9.50;5.27;;;5.10;90.10;;;;;;5005529;28;20731;-81
2023/03/01 11:03:30;;;;;;;5.83;3.87;;;5.00;89.40;;;;;;5000038;28;20475;-81
2023/03/01 11:06:04;;;;;;;29.37;5.40;;;5.00;89.90;;;;;;5005447;28;20447;-81
2023/03/01 11:08:36;;;;;;;4.13;3.90;;;5.10;89.90;;;;;;5012246;28;20420;-82
2023/03/01 11:11:18;;;;;;;4.63;3.67;;;5.20;89.90;;;;;;4998810;28;20453;-82
2023/03/01 11:13:54;;;;;;;5.47;3.63;;;5.20;89.20;;;;;;5002481;28;20462;-80
2023/03/01 11:16:35;;;;;;;13.17;4.67;;;5.20;88.90;;;;;;5015838;28;20423;-80
2023/03/01 11:19:15;;;;;;;4.60;2.97;;;5.20;89.10;;;;;;5007301;28;20803;-82
2023/03/01 11:21:48;;;;;;;4.70;4.40;;;5.30;89.10;;;;;;5008352;28;20413;-81
2023/03/01 11:24:15;;;;;;;1.73;1.63;;;5.30;88.90;;;;;;5013158;28;20408;-81
2023/03/01 11:26:46;;;;;;;2.70;2.53;;;5.40;88.70;;;;;;5004344;28;20429;-82
2023/03/01 11:29:30;;;;;;;2.30;2.10;;;5.40;87.60;;;;;;5006206;28;20452;-82
2023/03/01 11:32:00;;;;;;;6.10;5.53;;;5.40;87.70;;;;;;4999827;28;20452;-80
2023/03/01 11:34:36;;;;;;;3.70;3.50;;;5.60;88.30;;;;;;5008933;28;20439;-82
2023/03/01 11:37:07;;;;;;;4.10;2.57;;;5.70;87.40;;;;;;5014556;28;21041;-80
2023/03/01 11:39:51;;;;;;;3.90;2.63;;;5.80;87.20;;;;;;5011222;28;20517;-82
2023/03/01 11:42:49;;;;;;;7.23;5.03;;;5.80;86.90;;;;;;5019303;28;20444;-79
2023/03/01 11:45:15;;;;;;;13.00;5.20;;;5.90;87.00;;;;;;4989818;28;20478;-81
2023/03/01 11:47:58;;;;;;;5.50;2.50;;;5.90;86.80;;;;;;5031844;28;20430;-82
2023/03/01 11:50:24;;;;;;;10.27;3.67;;;6.00;87.60;;;;;;5009459;28;20631;-80
2023/03/01 11:53:16;;;;;;;6.30;3.60;;;6.20;87.60;;;;;;5009573;28;20463;-80
2023/03/01 11:56:06;;;;;;;6.40;4.20;;;6.20;86.40;;;;;;5021837;28;20284;-81
2023/03/01 11:59:05;;;;;;;2.70;2.40;;;6.30;86.50;;;;;;5013926;28;20615;-80
2023/03/01 12:02:16;;;;;;;5.77;5.47;;;6.40;84.50;;;;;;5011350;28;20423;-80
2023/03/01 12:05:37;;;;;;;5.17;3.00;;;6.40;85.30;;;;;;4985645;28;20432;-81
2023/03/01 12:08:10;;;;;;;4.97;4.33;;;6.50;84.90;;;;;;5024035;28;20416;-81
2023/03/01 12:10:50;;;;;;;9.83;3.80;;;6.70;85.50;;;;;;5016051;28;20427;-82
2023/03/01 12:13:18;;;;;;;8.00;4.30;;;6.90;83.90;;;;;;5028578;28;20467;-82
2023/03/01 12:15:58;;;;;;;3.60;3.40;;;6.90;83.60;;;;;;5012260;28;20446;-81
2023/03/01 12:18:35;;;;;;;9.43;3.97;;;7.00;82.50;;;;;;5014054;28;20462;-80
2023/03/01 12:21:00;;;;;;;5.70;4.10;;;7.00;82.50;;;;;;5010453;28;20985;-83
2023/03/01 12:23:42;;;;;;;5.90;4.23;;;7.00;83.70;;;;;;5014434;28;20438;-83
2023/03/01 12:26:17;;;;;;;5.97;2.90;;;7.20;83.80;;;;;;5018046;28;20180;-81
2023/03/01 12:29:11;;;;;;;5.17;3.00;;;7.40;84.10;;;;;;5029023;28;20491;-82
2023/03/01 12:31:45;;;;;;;5.17;4.87;;;7.60;83.80;;;;;;5012362;28;20416;-81
2023/03/01 12:34:35;;;;;;;6.30;4.60;;;7.70;82.80;;;;;;5030546;28;20452;-80
2023/03/01 12:37:39;;;;;;;6.83;3.60;;;7.80;82.50;;;;;;5031528;28;20486;-82
2023/03/01 12:40:27;;;;;;;2.83;2.23;;;7.80;82.40;;;;;;5015144;28;20804;-81
2023/03/01 12:43:08;;;;;;;10.83;6.50;;;8.00;83.10;;;;;;5013061;28;20585;-82
2023/03/01 12:45:54;;;;;;;6.77;4.37;;;8.20;81.90;;;;;;5018546;28;20459;-80
2023/03/01 12:48:37;;;;;;;9.37;4.60;;;8.40;81.60;;;;;;5034221;28;20431;-82
2023/03/01 12:51:08;;;;;;;10.00;4.60;;;8.60;81.30;;;;;;5010339;28;20474;-83
2023/03/01 12:54:04;;;;;;;7.60;4.97;;;8.70;81.40;;;;;;5013898;28;20509;-82
2023/03/01 12:56:34;;;;;;;9.20;4.53;;;8.80;81.00;;;;;;5008129;28;20861;-80
2023/03/01 12:59:18;;;;;;;8.13;5.60;;;9.00;79.20;;;;;;5010037;28;20438;-81
2023/03/01 13:01:49;;;;;;;3.27;2.80;;;9.00;79.30;;;;;;5008857;28;20436;-83
2023/03/01 13:04:48;;;;;;;4.97;4.67;;;9.10;80.20;;;;;;5005813;28;20569;-81
2023/03/01 13:07:27;;;;;;;13.40;6.57;;;9.10;79.30;;;;;;5017005;28;20434;-81
2023/03/01 13:10:13;;;;;;;4.13;3.10;;;9.10;78.10;;;;;;5015415;28;20431;-81
2023/03/01 13:13:01;;;;;;;7.57;3.70;;;9.10;78.30;;;;;;5008852;28;20443;-82
2023/03/01 13:15:32;;;;;;;5.73;3.30;;;9.30;77.80;;;;;;5016401;28;20419;-82